createdAt,value
2019-06-27T00:02:08.865Z,21.34
2019-06-27T00:04:38.377Z,21.35
2019-06-27T00:07:07.884Z,21.44
2019-06-27T00:09:37.285Z,21.49
2019-06-27T00:12:06.750Z,21.40
2019-06-27T00:14:36.368Z,21.42
2019-06-27T00:17:05.970Z,21.37
2019-06-27T00:19:35.439Z,21.20
2019-06-27T00:22:04.980Z,21.18
2019-06-27T00:24:34.565Z,21.23
2019-06-27T00:27:04.025Z,21.24
2019-06-27T00:29:33.536Z,21.35
2019-06-27T00:32:03.026Z,21.44
2019-06-27T00:34:32.583Z,21.26
2019-06-27T00:37:02.011Z,21.32
2019-06-27T00:39:31.532Z,21.35
2019-06-27T00:42:01.018Z,21.41
2019-06-27T00:44:30.512Z,21.42
2019-06-27T00:46:59.975Z,21.39
2019-06-27T00:49:29.492Z,21.37
2019-06-27T00:51:58.977Z,21.26
2019-06-27T00:54:28.389Z,21.29
2019-06-27T00:57:13.080Z,21.07
2019-06-27T00:59:29.083Z,21.04
2019-06-27T01:01:58.509Z,20.94
2019-06-27T01:04:28.130Z,21.10
2019-06-27T01:06:57.629Z,21.11
2019-06-27T01:09:27.030Z,21.13
2019-06-27T01:11:56.494Z,21.10
2019-06-27T01:14:26.017Z,21.06
2019-06-27T01:16:55.513Z,21.03
2019-06-27T01:19:24.997Z,20.95
2019-06-27T01:21:54.418Z,20.99
2019-06-27T01:24:23.979Z,21.03
2019-06-27T01:26:53.473Z,21.01
2019-06-27T01:29:22.884Z,21.03
2019-06-27T01:31:52.327Z,21.00
2019-06-27T01:34:21.853Z,21.11
2019-06-27T01:36:51.383Z,21.15
2019-06-27T01:39:20.887Z,21.18
2019-06-27T01:41:50.380Z,21.23
2019-06-27T01:44:37.288Z,21.25
2019-06-27T01:47:07.430Z,21.28
2019-06-27T01:49:36.946Z,21.36
2019-06-27T01:52:06.572Z,21.37
2019-06-27T01:54:35.964Z,21.39
2019-06-27T01:57:05.723Z,21.42
2019-06-27T01:59:35.280Z,21.43
2019-06-27T02:02:05.159Z,21.32
2019-06-27T02:04:34.719Z,21.36
2019-06-27T02:07:04.265Z,21.36
2019-06-27T02:09:33.784Z,21.34
2019-06-27T02:12:03.309Z,21.34
2019-06-27T02:14:32.710Z,21.39
2019-06-27T02:17:02.141Z,21.37
2019-06-27T02:19:31.646Z,21.40
2019-06-27T02:22:01.096Z,21.40
2019-06-27T02:24:30.640Z,21.46
2019-06-27T02:27:00.137Z,21.30
2019-06-27T02:29:29.557Z,21.40
2019-06-27T02:31:58.996Z,21.44
2019-06-27T02:34:28.546Z,21.38
2019-06-27T02:36:58.070Z,21.38
2019-06-27T02:39:27.485Z,21.38
2019-06-27T02:41:56.862Z,21.31
2019-06-27T02:44:26.407Z,21.24
2019-06-27T02:46:55.894Z,21.19
2019-06-27T02:49:25.434Z,21.17
2019-06-27T02:51:54.930Z,21.18
2019-06-27T02:54:24.449Z,21.21
2019-06-27T02:56:53.941Z,21.23
2019-06-27T02:59:23.341Z,21.28
2019-06-27T03:01:52.791Z,21.33
2019-06-27T03:04:22.294Z,21.39
2019-06-27T03:06:51.908Z,21.42
2019-06-27T03:09:21.311Z,21.44
2019-06-27T03:11:50.736Z,21.45
2019-06-27T03:14:20.279Z,21.46
2019-06-27T03:16:49.781Z,21.49
2019-06-27T03:19:19.204Z,21.41
2019-06-27T03:21:48.645Z,21.34
2019-06-27T03:24:18.157Z,21.46
2019-06-27T03:26:47.678Z,21.47
2019-06-27T03:29:20.174Z,21.50
2019-06-27T03:31:48.279Z,21.49
2019-06-27T03:34:18.102Z,21.47
2019-06-27T03:36:47.584Z,21.43
2019-06-27T03:39:17.055Z,21.40
2019-06-27T03:41:46.627Z,21.45
2019-06-27T03:44:16.044Z,21.64
2019-06-27T03:46:45.477Z,21.82
2019-06-27T03:49:15.000Z,21.88
2019-06-27T03:51:44.525Z,21.90
2019-06-27T03:54:13.925Z,21.98
2019-06-27T03:56:43.347Z,21.96
2019-06-27T03:59:13.969Z,22.12
2019-06-27T04:01:43.644Z,22.14
2019-06-27T04:04:13.091Z,22.26
2019-06-27T04:06:42.512Z,22.38
2019-06-27T04:09:12.026Z,22.42
2019-06-27T04:11:41.656Z,22.50
2019-06-27T04:14:11.058Z,22.53
2019-06-27T04:16:41.975Z,22.57
2019-06-27T04:19:12.752Z,22.57
2019-06-27T04:21:43.520Z,22.60
2019-06-27T04:24:14.766Z,22.56
2019-06-27T04:26:45.457Z,22.55
2019-06-27T04:29:33.052Z,22.57
2019-06-27T04:31:48.800Z,22.60
2019-06-27T04:34:20.457Z,22.73
2019-06-27T04:36:51.632Z,22.78
2019-06-27T04:39:22.434Z,22.79
2019-06-27T04:41:53.357Z,22.85
2019-06-27T04:44:24.072Z,22.81
2019-06-27T04:46:54.760Z,22.88
2019-06-27T04:49:25.624Z,22.87
2019-06-27T04:51:56.272Z,22.89
2019-06-27T04:54:26.912Z,22.94
2019-06-27T04:56:57.796Z,23.01
2019-06-27T04:59:28.426Z,23.06
2019-06-27T05:20:38.718Z,23.88
2019-06-27T05:23:08.132Z,23.91
2019-06-27T05:25:37.761Z,23.96
2019-06-27T05:28:07.473Z,23.87
2019-06-27T05:30:37.195Z,23.86
2019-06-27T05:33:06.665Z,23.87
2019-06-27T05:35:36.492Z,23.86
2019-06-27T05:38:05.914Z,23.81
2019-06-27T05:40:35.338Z,23.74
2019-06-27T05:43:05.021Z,23.77
2019-06-27T05:45:34.847Z,23.78
2019-06-27T05:48:04.401Z,23.90
2019-06-27T05:50:34.157Z,23.96
2019-06-27T05:53:03.917Z,24.09
2019-06-27T05:55:33.767Z,24.21
2019-06-27T05:58:03.405Z,24.28
2019-06-27T06:00:33.063Z,24.39
2019-06-27T06:03:02.603Z,24.45
2019-06-27T06:05:32.244Z,24.45
2019-06-27T06:08:01.960Z,24.43
2019-06-27T06:10:31.634Z,24.37
2019-06-27T06:13:01.314Z,24.39
2019-06-27T06:15:30.917Z,24.40
2019-06-27T06:18:00.540Z,24.42
2019-06-27T06:20:30.222Z,24.52
2019-06-27T06:23:00.070Z,24.67
2019-06-27T06:25:29.804Z,24.79
2019-06-27T06:27:59.477Z,24.86
2019-06-27T06:30:43.228Z,24.98
2019-06-27T06:33:00.543Z,25.09
2019-06-27T06:35:30.035Z,25.23
2019-06-27T06:37:59.566Z,25.29
2019-06-27T06:40:29.393Z,25.34
2019-06-27T06:43:00.613Z,25.35
2019-06-27T06:45:30.482Z,25.33
2019-06-27T06:47:59.927Z,25.43
2019-06-27T06:50:29.716Z,25.54
2019-06-27T06:52:59.469Z,25.55
2019-06-27T06:55:29.222Z,25.61
2019-06-27T06:57:58.808Z,25.74
2019-06-27T07:00:28.691Z,25.79
2019-06-27T07:02:58.511Z,25.74
2019-06-27T07:05:28.039Z,25.71
2019-06-27T07:07:57.555Z,25.71
2019-06-27T07:10:27.287Z,25.77
2019-06-27T07:12:57.128Z,25.79
2019-06-27T07:15:26.672Z,25.87
2019-06-27T07:17:56.455Z,26.00
2019-06-27T07:20:26.128Z,26.12
2019-06-27T07:22:55.602Z,26.13
2019-06-27T07:25:25.164Z,26.10
2019-06-27T07:27:54.857Z,26.04
2019-06-27T07:30:24.633Z,26.06
2019-06-27T07:32:54.445Z,26.10
2019-06-27T07:35:24.311Z,26.07
2019-06-27T07:37:54.116Z,26.11
2019-06-27T07:40:23.871Z,26.11
2019-06-27T07:42:53.590Z,26.18
2019-06-27T07:45:23.014Z,26.25
2019-06-27T07:47:52.808Z,26.40
2019-06-27T07:50:22.550Z,26.49
2019-06-27T07:52:52.053Z,26.63
2019-06-27T07:55:23.504Z,26.68
2019-06-27T07:57:52.949Z,26.74
2019-06-27T08:00:23.643Z,26.83
2019-06-27T08:02:53.327Z,26.91
2019-06-27T08:05:22.907Z,27.04
2019-06-27T08:07:52.328Z,27.20
2019-06-27T08:10:22.091Z,27.18
2019-06-27T08:12:51.938Z,27.15
2019-06-27T08:15:21.991Z,27.12
2019-06-27T08:17:51.675Z,27.16
2019-06-27T08:20:21.568Z,27.21
2019-06-27T08:22:51.280Z,27.26
2019-06-27T08:25:21.117Z,27.38
2019-06-27T08:27:51.001Z,27.51
2019-06-27T08:30:21.730Z,27.61
2019-06-27T08:32:51.443Z,27.79
2019-06-27T08:35:20.963Z,27.87
2019-06-27T08:37:50.555Z,27.96
2019-06-27T08:40:20.109Z,28.01
2019-06-27T08:42:49.808Z,28.00
2019-06-27T08:45:19.582Z,28.03
2019-06-27T08:47:49.394Z,28.10
2019-06-27T08:50:20.599Z,27.98
2019-06-27T08:52:50.394Z,27.87
2019-06-27T08:55:20.052Z,27.88
2019-06-27T08:57:49.766Z,27.91
2019-06-27T09:00:19.903Z,27.98
2019-06-27T09:02:49.619Z,28.07
2019-06-27T09:05:19.216Z,28.22
2019-06-27T09:07:48.805Z,28.24
2019-06-27T09:10:18.722Z,28.33
2019-06-27T09:12:48.594Z,28.43
2019-06-27T09:15:18.332Z,28.69
2019-06-27T09:17:48.143Z,28.76
2019-06-27T09:20:17.843Z,28.76
2019-06-27T09:22:47.242Z,28.86
2019-06-27T09:25:16.919Z,28.91
2019-06-27T09:27:46.786Z,28.91
2019-06-27T09:30:17.024Z,29.08
2019-06-27T09:32:46.591Z,29.08
2019-06-27T09:35:16.545Z,29.17
2019-06-27T09:37:46.336Z,29.26
2019-06-27T09:40:16.160Z,29.17
2019-06-27T09:42:46.097Z,29.05
2019-06-27T09:45:16.053Z,29.04
2019-06-27T09:47:45.905Z,29.27
2019-06-27T09:50:16.207Z,29.63
2019-06-27T09:52:45.612Z,30.11
2019-06-27T09:55:15.264Z,30.52
2019-06-27T09:57:44.651Z,31.21
2019-06-27T10:00:14.821Z,32.11
2019-06-27T10:02:44.523Z,33.07
2019-06-27T10:05:13.920Z,34.06
2019-06-27T10:07:43.412Z,35.04
2019-06-27T10:10:14.039Z,36.10
2019-06-27T10:12:43.570Z,37.23
2019-06-27T10:15:14.176Z,38.17
2019-06-27T10:17:43.582Z,39.18
2019-06-27T10:20:14.660Z,40.09
2019-06-27T10:22:44.328Z,40.99
2019-06-27T10:25:14.172Z,41.92
2019-06-27T10:27:43.885Z,42.62
2019-06-27T10:30:13.933Z,43.33
2019-06-27T10:32:57.720Z,44.05
2019-06-27T10:35:14.903Z,44.51
2019-06-27T10:37:44.541Z,45.02
2019-06-27T10:40:14.247Z,45.68
2019-06-27T10:42:43.880Z,46.29
2019-06-27T10:45:13.700Z,46.95
2019-06-27T10:47:43.423Z,47.46
2019-06-27T10:50:13.293Z,47.87
2019-06-27T10:52:42.699Z,48.09
2019-06-27T10:55:13.605Z,48.31
2019-06-27T10:57:43.317Z,48.45
2019-06-27T11:00:12.912Z,48.73
2019-06-27T11:02:42.675Z,48.67
2019-06-27T11:05:12.218Z,48.75
2019-06-27T11:07:42.300Z,47.29
2019-06-27T11:10:11.845Z,46.88
2019-06-27T11:12:44.868Z,47.18
2019-06-27T11:15:12.975Z,47.72
2019-06-27T11:17:42.366Z,48.12
2019-06-27T11:20:15.269Z,48.31
2019-06-27T11:22:44.370Z,48.37
2019-06-27T11:25:14.522Z,48.81
2019-06-27T11:27:44.364Z,49.06
2019-06-27T11:30:14.684Z,48.86
2019-06-27T11:32:44.327Z,49.57
2019-06-27T11:35:13.961Z,49.67
2019-06-27T11:37:43.614Z,49.70
2019-06-27T11:40:13.247Z,49.90
2019-06-27T11:42:42.679Z,49.74
2019-06-27T11:45:12.619Z,49.32
2019-06-27T11:47:42.395Z,49.38
2019-06-27T11:50:12.267Z,49.18
2019-06-27T11:52:42.007Z,48.57
2019-06-27T11:55:11.503Z,47.20
2019-06-27T11:57:41.199Z,47.93
2019-06-27T12:00:11.361Z,48.53
2019-06-27T12:02:40.762Z,48.38
2019-06-27T12:05:10.341Z,46.94
2019-06-27T12:07:39.938Z,46.15
2019-06-27T12:10:10.624Z,46.20
2019-06-27T12:12:40.068Z,46.40
2019-06-27T12:15:09.798Z,46.21
2019-06-27T12:17:39.839Z,45.69
2019-06-27T12:20:10.373Z,45.52
2019-06-27T12:22:39.920Z,44.71
2019-06-27T12:25:09.982Z,43.37
2019-06-27T12:27:39.802Z,42.55
2019-06-27T12:30:09.797Z,42.75
2019-06-27T12:32:51.194Z,43.86
2019-06-27T12:35:11.042Z,43.85
2019-06-27T12:37:40.456Z,43.90
2019-06-27T12:40:10.195Z,44.06
2019-06-27T12:42:39.900Z,43.44
2019-06-27T12:45:09.813Z,44.01
2019-06-27T12:47:39.473Z,44.39
2019-06-27T12:50:09.277Z,44.90
2019-06-27T12:52:39.165Z,45.53
2019-06-27T12:55:08.846Z,45.87
2019-06-27T12:57:38.507Z,45.24
2019-06-27T13:00:09.173Z,44.45
2019-06-27T13:02:39.023Z,44.79
2019-06-27T13:05:08.425Z,45.33
2019-06-27T13:07:38.138Z,45.87
2019-06-27T13:10:08.273Z,46.27
2019-06-27T13:12:38.154Z,45.62
2019-06-27T13:15:07.934Z,45.47
2019-06-27T13:17:37.319Z,45.61
2019-06-27T13:20:07.852Z,44.58
2019-06-27T13:22:37.729Z,45.17
2019-06-27T13:25:07.237Z,45.40
2019-06-27T13:27:36.910Z,45.39
2019-06-27T13:30:07.245Z,45.52
2019-06-27T13:32:36.940Z,45.99
2019-06-27T13:35:06.936Z,46.47
2019-06-27T13:37:36.272Z,46.40
2019-06-27T13:40:06.274Z,45.56
2019-06-27T13:42:38.368Z,44.92
2019-06-27T13:45:07.274Z,45.14
2019-06-27T13:47:36.983Z,44.70
2019-06-27T13:50:06.851Z,44.50
2019-06-27T13:52:36.313Z,44.82
2019-06-27T13:55:06.410Z,44.89
2019-06-27T13:57:35.819Z,44.80
2019-06-27T14:00:06.317Z,44.57
2019-06-27T14:02:35.823Z,44.67
2019-06-27T14:05:05.762Z,44.22
2019-06-27T14:07:35.588Z,43.20
2019-06-27T14:10:05.518Z,42.41
2019-06-27T14:12:34.926Z,42.05
2019-06-27T14:15:04.815Z,41.07
2019-06-27T14:17:34.680Z,40.14
2019-06-27T14:20:04.441Z,39.76
2019-06-27T14:22:34.324Z,39.06
2019-06-27T14:25:04.067Z,38.57
2019-06-27T14:27:33.670Z,37.84
2019-06-27T14:30:03.174Z,36.81
2019-06-27T14:32:32.865Z,36.18
2019-06-27T14:35:14.645Z,35.62
2019-06-27T14:37:34.140Z,35.61
2019-06-27T14:40:03.974Z,35.28
2019-06-27T14:42:33.435Z,35.07
2019-06-27T14:45:03.162Z,34.87
2019-06-27T14:47:32.861Z,34.92
2019-06-27T14:50:02.387Z,34.84
2019-06-27T14:52:34.833Z,34.80
2019-06-27T14:55:03.144Z,34.83
2019-06-27T14:57:32.541Z,34.67
2019-06-27T15:00:02.408Z,34.53
2019-06-27T15:02:31.961Z,34.29
2019-06-27T15:05:01.523Z,34.14
2019-06-27T15:07:31.384Z,33.93
2019-06-27T15:10:01.267Z,33.61
2019-06-27T15:12:30.722Z,33.37
2019-06-27T15:15:00.394Z,33.11
2019-06-27T15:17:29.938Z,32.77
2019-06-27T15:19:59.611Z,32.88
2019-06-27T15:22:31.541Z,32.88
2019-06-27T15:25:01.376Z,32.83
2019-06-27T15:27:31.033Z,32.85
2019-06-27T15:30:00.776Z,32.83
2019-06-27T15:32:30.479Z,32.62
2019-06-27T15:35:00.162Z,32.58
2019-06-27T15:37:29.820Z,32.44
2019-06-27T15:39:59.377Z,32.34
2019-06-27T15:42:29.026Z,32.38
2019-06-27T15:44:58.445Z,32.40
2019-06-27T15:47:28.388Z,32.29
2019-06-27T15:49:58.156Z,32.27
2019-06-27T15:52:27.741Z,32.16
2019-06-27T15:54:57.512Z,32.07
2019-06-27T15:57:27.284Z,31.94
2019-06-27T15:59:56.877Z,31.83
2019-06-27T16:02:26.709Z,31.78
2019-06-27T16:04:56.411Z,31.71
2019-06-27T16:07:25.986Z,31.62
2019-06-27T16:09:55.715Z,31.63
2019-06-27T16:12:26.067Z,31.61
2019-06-27T16:14:55.851Z,31.55
2019-06-27T16:17:25.247Z,31.49
2019-06-27T16:19:55.025Z,31.45
2019-06-27T16:22:24.848Z,31.45
2019-06-27T16:24:54.407Z,31.37
2019-06-27T16:27:23.856Z,31.31
2019-06-27T16:29:53.598Z,31.23
2019-06-27T16:32:23.319Z,31.25
2019-06-27T16:34:53.047Z,31.22
2019-06-27T16:37:22.467Z,31.15
2019-06-27T16:39:52.314Z,31.07
2019-06-27T16:42:21.755Z,31.04
2019-06-27T16:44:51.439Z,31.00
2019-06-27T16:47:21.300Z,30.93
2019-06-27T16:49:51.017Z,30.92
2019-06-27T16:52:20.632Z,30.82
2019-06-27T16:54:50.050Z,30.80
2019-06-27T16:57:19.862Z,30.73
2019-06-27T16:59:49.598Z,30.66
2019-06-27T17:02:19.179Z,30.61
2019-06-27T17:04:48.789Z,30.49
2019-06-27T17:07:18.561Z,30.49
2019-06-27T17:09:48.094Z,30.42
2019-06-27T17:12:17.490Z,30.36
2019-06-27T17:14:47.379Z,30.27
2019-06-27T17:17:17.067Z,30.16
2019-06-27T17:19:48.518Z,30.16
2019-06-27T17:22:18.087Z,30.04
2019-06-27T17:24:47.818Z,30.00
2019-06-27T17:27:17.490Z,30.00
2019-06-27T17:29:46.925Z,29.91
2019-06-27T17:32:16.774Z,29.84
2019-06-27T17:34:46.315Z,29.79
2019-06-27T17:37:18.565Z,29.72
2019-06-27T17:39:46.938Z,29.66
2019-06-27T17:42:16.744Z,29.63
2019-06-27T17:44:46.224Z,29.53
2019-06-27T17:47:15.931Z,29.45
2019-06-27T17:49:49.008Z,29.39
2019-06-27T17:52:17.071Z,29.35
2019-06-27T17:54:46.866Z,29.29
2019-06-27T17:57:16.313Z,29.26
2019-06-27T17:59:45.907Z,29.20
2019-06-27T18:02:15.561Z,29.12
2019-06-27T18:04:45.235Z,29.07
2019-06-27T18:07:15.325Z,28.98
2019-06-27T18:09:44.834Z,28.93
2019-06-27T18:12:14.646Z,28.89
2019-06-27T18:14:44.065Z,28.84
2019-06-27T18:17:13.610Z,28.77
2019-06-27T18:19:43.531Z,28.74
2019-06-27T18:22:13.229Z,28.70
2019-06-27T18:24:43.056Z,28.64
2019-06-27T18:27:12.560Z,28.59
2019-06-27T18:29:42.111Z,28.57
2019-06-27T18:32:11.811Z,28.47
2019-06-27T18:34:41.492Z,28.49
2019-06-27T18:37:11.301Z,28.41
2019-06-27T18:39:40.795Z,28.29
2019-06-27T18:42:10.586Z,28.27
2019-06-27T18:44:40.405Z,28.23
2019-06-27T18:47:10.245Z,28.17
2019-06-27T18:49:40.079Z,28.14
2019-06-27T18:52:10.038Z,28.09
2019-06-27T18:54:39.466Z,28.09
2019-06-27T18:57:08.976Z,28.06
2019-06-27T18:59:38.496Z,28.03
2019-06-27T19:02:08.102Z,27.97
2019-06-27T19:04:37.882Z,27.99
2019-06-27T19:07:07.642Z,27.94
2019-06-27T19:09:37.411Z,27.98
2019-06-27T19:12:07.094Z,27.99
2019-06-27T19:14:37.021Z,27.98
2019-06-27T19:17:06.827Z,28.01
2019-06-27T19:19:37.910Z,27.98
2019-06-27T19:22:26.649Z,28.04
2019-06-27T19:25:21.481Z,27.99
2019-06-27T19:27:51.125Z,28.00
2019-06-27T19:30:21.003Z,27.97
2019-06-27T19:32:50.781Z,27.92
2019-06-27T19:35:20.662Z,27.92
2019-06-27T19:38:01.511Z,27.88
2019-06-27T19:40:21.632Z,27.81
2019-06-27T19:42:51.485Z,27.79
2019-06-27T19:45:21.452Z,27.77
2019-06-27T19:47:50.847Z,27.73
2019-06-27T19:50:20.665Z,27.74
2019-06-27T19:52:50.213Z,27.72
2019-06-27T19:55:20.136Z,27.66
2019-06-27T19:57:49.753Z,27.66
2019-06-27T20:00:20.020Z,27.63
2019-06-27T20:02:49.788Z,27.56
2019-06-27T20:05:19.431Z,27.49
2019-06-27T20:07:49.253Z,27.47
2019-06-27T20:10:19.176Z,27.43
2019-06-27T20:12:48.846Z,27.40
2019-06-27T20:15:18.824Z,27.32
2019-06-27T20:17:48.804Z,27.23
2019-06-27T20:20:18.809Z,27.06
2019-06-27T20:22:48.482Z,26.92
2019-06-27T20:25:18.478Z,26.81
2019-06-27T20:27:48.249Z,26.81
2019-06-27T20:30:19.644Z,26.79
2019-06-27T20:32:49.175Z,26.65
2019-06-27T20:35:18.600Z,26.50
2019-06-27T20:37:48.499Z,26.45
2019-06-27T20:40:18.674Z,26.39
2019-06-27T20:42:48.486Z,26.42
2019-06-27T20:45:18.451Z,26.48
2019-06-27T20:47:49.795Z,26.50
2019-06-27T20:50:19.789Z,26.46
2019-06-27T20:52:49.883Z,26.40
2019-06-27T20:55:19.745Z,26.44
2019-06-27T20:57:49.241Z,26.48
2019-06-27T21:00:18.867Z,26.48
2019-06-27T21:02:48.342Z,26.51
2019-06-27T21:05:17.838Z,26.51
2019-06-27T21:07:47.329Z,26.50
2019-06-27T21:10:17.527Z,26.49
2019-06-27T21:12:47.226Z,26.49
2019-06-27T21:15:17.135Z,26.47
2019-06-27T21:17:47.255Z,26.50
2019-06-27T21:20:17.225Z,26.49
2019-06-27T21:22:46.826Z,26.45
2019-06-27T21:25:16.357Z,26.43
2019-06-27T21:27:45.994Z,26.43
2019-06-27T21:30:16.314Z,26.42
2019-06-27T21:32:48.285Z,26.37
2019-06-27T21:35:17.022Z,26.38
2019-06-27T21:37:46.498Z,26.35
2019-06-27T21:40:17.502Z,26.33
2019-06-27T21:42:47.314Z,26.34
2019-06-27T21:45:16.796Z,26.32
2019-06-27T21:47:46.446Z,26.27
2019-06-27T21:50:16.116Z,26.26
2019-06-27T21:52:45.686Z,26.25
2019-06-27T21:55:15.641Z,26.20
2019-06-27T21:57:45.102Z,26.19
2019-06-27T22:00:14.819Z,26.18
2019-06-27T22:02:44.654Z,26.17
2019-06-27T22:05:14.663Z,26.16
2019-06-27T22:07:44.406Z,26.16
2019-06-27T22:10:14.170Z,26.16
2019-06-27T22:12:43.891Z,26.17
2019-06-27T22:15:14.018Z,26.17
2019-06-27T22:17:43.384Z,26.16
2019-06-27T22:20:15.438Z,26.18
2019-06-27T22:22:45.286Z,26.16
2019-06-27T22:25:15.812Z,26.16
2019-06-27T22:27:45.211Z,26.19
2019-06-27T22:30:15.485Z,26.20
2019-06-27T22:32:45.276Z,26.21
2019-06-27T22:35:15.065Z,26.19
2019-06-27T22:38:02.067Z,26.22
2019-06-27T22:40:49.471Z,26.26
2019-06-27T22:43:36.940Z,26.23
2019-06-27T22:46:24.137Z,26.22
2019-06-27T22:48:53.006Z,26.21
2019-06-27T22:51:31.993Z,26.23
2019-06-27T22:54:02.907Z,26.22
2019-06-27T22:56:32.386Z,26.17
2019-06-27T22:59:02.197Z,26.22
2019-06-27T23:01:31.827Z,26.22
2019-06-27T23:04:01.297Z,26.23
2019-06-27T23:06:30.942Z,26.24
2019-06-27T23:09:00.452Z,26.21
2019-06-27T23:11:30.017Z,26.20
2019-06-27T23:13:59.630Z,26.16
2019-06-27T23:16:29.289Z,26.15
2019-06-27T23:18:59.009Z,26.17
2019-06-27T23:21:28.558Z,26.13
2019-06-27T23:23:58.371Z,26.11
2019-06-27T23:26:27.938Z,26.02
2019-06-27T23:28:57.453Z,25.97
2019-06-27T23:31:27.126Z,25.94
2019-06-27T23:33:56.906Z,25.89
2019-06-27T23:36:26.522Z,25.86
2019-06-27T23:38:56.097Z,25.85
2019-06-27T23:41:25.670Z,25.84
2019-06-27T23:43:55.515Z,25.83
2019-06-27T23:46:43.741Z,25.83
2019-06-27T23:49:13.405Z,25.86
2019-06-27T23:51:43.143Z,25.87
2019-06-27T23:54:12.619Z,25.94
2019-06-27T23:56:42.203Z,25.95
2019-06-27T23:59:11.782Z,25.96
